sensor_id;sensor_type;location;lat;lon;timestamp;P1;durP1;ratioP1;P2;durP2;ratioP2
11222;SDS011;5668;52.012;8.724;2023-08-12T00:02:01;6.80;;;3.70;;
11222;SDS011;5668;52.012;8.724;2023-08-12T00:04:28;4.22;;;3.50;;
11222;SDS011;5668;52.012;8.724;2023-08-12T00:06:57;5.47;;;3.55;;
11222;SDS011;5668;52.012;8.724;2023-08-12T00:09:24;4.80;;;3.92;;
11222;SDS011;5668;52.012;8.724;2023-08-12T00:11:51;4.95;;;3.33;;
11222;SDS011;5668;52.012;8.724;2023-08-12T00:14:19;4.28;;;3.80;;
11222;SDS011;5668;52.012;8.724;2023-08-12T00:16:46;4.72;;;3.05;;
11222;SDS011;5668;52.012;8.724;2023-08-12T00:19:13;3.67;;;3.10;;
11222;SDS011;5668;52.012;8.724;2023-08-12T00:21:41;3.95;;;3.50;;
11222;SDS011;5668;52.012;8.724;2023-08-12T00:24:09;4.35;;;3.65;;
11222;SDS011;5668;52.012;8.724;2023-08-12T00:26:36;6.45;;;3.30;;
11222;SDS011;5668;52.012;8.724;2023-08-12T00:29:04;3.72;;;3.25;;
11222;SDS011;5668;52.012;8.724;2023-08-12T00:31:31;5.10;;;3.10;;
11222;SDS011;5668;52.012;8.724;2023-08-12T00:33:58;10.98;;;4.03;;
11222;SDS011;5668;52.012;8.724;2023-08-12T00:36:26;7.00;;;4.45;;
11222;SDS011;5668;52.012;8.724;2023-08-12T00:38:53;5.18;;;4.07;;
11222;SDS011;5668;52.012;8.724;2023-08-12T00:41:21;10.23;;;4.97;;
11222;SDS011;5668;52.012;8.724;2023-08-12T00:43:49;5.20;;;3.60;;
11222;SDS011;5668;52.012;8.724;2023-08-12T00:46:16;5.85;;;3.88;;
11222;SDS011;5668;52.012;8.724;2023-08-12T00:48:44;4.32;;;3.92;;
11222;SDS011;5668;52.012;8.724;2023-08-12T00:51:11;7.15;;;3.55;;
11222;SDS011;5668;52.012;8.724;2023-08-12T00:53:39;6.95;;;4.10;;
11222;SDS011;5668;52.012;8.724;2023-08-12T00:56:06;7.65;;;3.92;;
11222;SDS011;5668;52.012;8.724;2023-08-12T00:58:35;7.25;;;3.92;;
11222;SDS011;5668;52.012;8.724;2023-08-12T01:01:02;7.35;;;3.92;;
11222;SDS011;5668;52.012;8.724;2023-08-12T01:03:30;9.43;;;4.35;;
11222;SDS011;5668;52.012;8.724;2023-08-12T01:05:57;5.95;;;3.88;;
11222;SDS011;5668;52.012;8.724;2023-08-12T01:08:26;5.07;;;4.10;;
11222;SDS011;5668;52.012;8.724;2023-08-12T01:10:57;7.30;;;3.72;;
11222;SDS011;5668;52.012;8.724;2023-08-12T01:13:29;7.57;;;4.20;;
11222;SDS011;5668;52.012;8.724;2023-08-12T01:16:05;4.78;;;4.22;;
11222;SDS011;5668;52.012;8.724;2023-08-12T01:18:35;5.70;;;4.18;;
11222;SDS011;5668;52.012;8.724;2023-08-12T01:21:04;5.60;;;4.47;;
11222;SDS011;5668;52.012;8.724;2023-08-12T01:23:39;4.40;;;3.95;;
11222;SDS011;5668;52.012;8.724;2023-08-12T01:26:07;7.93;;;4.30;;
11222;SDS011;5668;52.012;8.724;2023-08-12T01:28:34;6.53;;;4.10;;
11222;SDS011;5668;52.012;8.724;2023-08-12T01:31:02;5.10;;;4.53;;
11222;SDS011;5668;52.012;8.724;2023-08-12T01:33:36;5.65;;;4.53;;
11222;SDS011;5668;52.012;8.724;2023-08-12T01:36:10;5.65;;;4.10;;
11222;SDS011;5668;52.012;8.724;2023-08-12T01:38:43;6.22;;;4.35;;
11222;SDS011;5668;52.012;8.724;2023-08-12T01:41:13;6.05;;;4.40;;
11222;SDS011;5668;52.012;8.724;2023-08-12T01:43:41;5.85;;;4.43;;
11222;SDS011;5668;52.012;8.724;2023-08-12T01:46:09;7.07;;;4.70;;
11222;SDS011;5668;52.012;8.724;2023-08-12T01:48:36;6.47;;;4.82;;
11222;SDS011;5668;52.012;8.724;2023-08-12T01:51:03;6.00;;;4.38;;
11222;SDS011;5668;52.012;8.724;2023-08-12T01:53:31;7.88;;;4.65;;
11222;SDS011;5668;52.012;8.724;2023-08-12T01:55:59;5.40;;;4.90;;
11222;SDS011;5668;52.012;8.724;2023-08-12T01:58:26;5.47;;;4.95;;
11222;SDS011;5668;52.012;8.724;2023-08-12T02:00:54;7.82;;;4.95;;
11222;SDS011;5668;52.012;8.724;2023-08-12T02:03:21;5.28;;;4.70;;
11222;SDS011;5668;52.012;8.724;2023-08-12T02:05:48;7.32;;;5.10;;
11222;SDS011;5668;52.012;8.724;2023-08-12T02:08:15;5.88;;;4.40;;
11222;SDS011;5668;52.012;8.724;2023-08-12T02:10:43;5.93;;;5.28;;
11222;SDS011;5668;52.012;8.724;2023-08-12T02:13:11;7.00;;;4.88;;
11222;SDS011;5668;52.012;8.724;2023-08-12T02:15:39;7.03;;;4.80;;
11222;SDS011;5668;52.012;8.724;2023-08-12T02:18:06;9.38;;;4.57;;
11222;SDS011;5668;52.012;8.724;2023-08-12T02:20:33;7.03;;;4.85;;
11222;SDS011;5668;52.012;8.724;2023-08-12T02:23:00;7.80;;;5.38;;
11222;SDS011;5668;52.012;8.724;2023-08-12T02:25:28;7.20;;;4.85;;
11222;SDS011;5668;52.012;8.724;2023-08-12T02:27:55;7.57;;;4.70;;
11222;SDS011;5668;52.012;8.724;2023-08-12T02:30:24;7.70;;;4.93;;
11222;SDS011;5668;52.012;8.724;2023-08-12T02:32:51;8.73;;;4.57;;
11222;SDS011;5668;52.012;8.724;2023-08-12T02:35:18;8.02;;;4.80;;
11222;SDS011;5668;52.012;8.724;2023-08-12T02:37:47;8.48;;;5.13;;
11222;SDS011;5668;52.012;8.724;2023-08-12T02:40:17;5.57;;;4.65;;
11222;SDS011;5668;52.012;8.724;2023-08-12T02:42:45;5.75;;;5.15;;
11222;SDS011;5668;52.012;8.724;2023-08-12T02:45:12;6.13;;;5.40;;
11222;SDS011;5668;52.012;8.724;2023-08-12T02:47:41;8.05;;;5.72;;
11222;SDS011;5668;52.012;8.724;2023-08-12T02:50:09;7.03;;;5.20;;
11222;SDS011;5668;52.012;8.724;2023-08-12T02:52:37;9.68;;;5.40;;
11222;SDS011;5668;52.012;8.724;2023-08-12T02:55:05;8.05;;;4.97;;
11222;SDS011;5668;52.012;8.724;2023-08-12T02:57:33;7.28;;;5.03;;
11222;SDS011;5668;52.012;8.724;2023-08-12T03:00:00;7.65;;;5.30;;
11222;SDS011;5668;52.012;8.724;2023-08-12T03:02:48;6.65;;;5.53;;
11222;SDS011;5668;52.012;8.724;2023-08-12T03:05:15;8.77;;;5.45;;
11222;SDS011;5668;52.012;8.724;2023-08-12T03:07:42;7.90;;;5.47;;
11222;SDS011;5668;52.012;8.724;2023-08-12T03:10:10;7.75;;;5.57;;
11222;SDS011;5668;52.012;8.724;2023-08-12T03:12:38;8.43;;;5.82;;
11222;SDS011;5668;52.012;8.724;2023-08-12T03:15:06;8.20;;;5.80;;
11222;SDS011;5668;52.012;8.724;2023-08-12T03:17:35;10.90;;;6.82;;
11222;SDS011;5668;52.012;8.724;2023-08-12T03:20:06;8.00;;;7.20;;
11222;SDS011;5668;52.012;8.724;2023-08-12T03:22:36;10.48;;;6.97;;
11222;SDS011;5668;52.012;8.724;2023-08-12T03:25:03;9.52;;;7.45;;
11222;SDS011;5668;52.012;8.724;2023-08-12T03:27:31;10.73;;;7.57;;
11222;SDS011;5668;52.012;8.724;2023-08-12T03:29:58;10.35;;;7.53;;
11222;SDS011;5668;52.012;8.724;2023-08-12T03:32:26;9.48;;;7.80;;
11222;SDS011;5668;52.012;8.724;2023-08-12T03:34:53;8.50;;;7.05;;
11222;SDS011;5668;52.012;8.724;2023-08-12T03:37:22;9.52;;;7.40;;
11222;SDS011;5668;52.012;8.724;2023-08-12T03:39:49;10.43;;;7.15;;
11222;SDS011;5668;52.012;8.724;2023-08-12T03:42:16;8.32;;;6.75;;
11222;SDS011;5668;52.012;8.724;2023-08-12T03:44:44;8.02;;;7.25;;
11222;SDS011;5668;52.012;8.724;2023-08-12T03:47:11;8.48;;;7.45;;
11222;SDS011;5668;52.012;8.724;2023-08-12T03:49:38;8.65;;;7.38;;
11222;SDS011;5668;52.012;8.724;2023-08-12T03:52:05;8.27;;;7.40;;
11222;SDS011;5668;52.012;8.724;2023-08-12T03:54:34;9.68;;;8.20;;
11222;SDS011;5668;52.012;8.724;2023-08-12T03:57:01;7.22;;;6.53;;
11222;SDS011;5668;52.012;8.724;2023-08-12T03:59:29;10.02;;;7.13;;
11222;SDS011;5668;52.012;8.724;2023-08-12T04:01:56;9.07;;;7.57;;
11222;SDS011;5668;52.012;8.724;2023-08-12T04:04:24;8.65;;;7.10;;
11222;SDS011;5668;52.012;8.724;2023-08-12T04:06:51;7.80;;;6.35;;
11222;SDS011;5668;52.012;8.724;2023-08-12T04:09:18;9.10;;;6.40;;
11222;SDS011;5668;52.012;8.724;2023-08-12T04:11:47;7.82;;;6.82;;
11222;SDS011;5668;52.012;8.724;2023-08-12T04:14:14;9.77;;;8.77;;
11222;SDS011;5668;52.012;8.724;2023-08-12T04:16:41;10.32;;;8.65;;
11222;SDS011;5668;52.012;8.724;2023-08-12T04:19:09;11.77;;;9.27;;
11222;SDS011;5668;52.012;8.724;2023-08-12T04:21:36;10.93;;;9.02;;
11222;SDS011;5668;52.012;8.724;2023-08-12T04:24:03;9.30;;;8.20;;
11222;SDS011;5668;52.012;8.724;2023-08-12T04:26:31;11.27;;;8.63;;
11222;SDS011;5668;52.012;8.724;2023-08-12T04:29:00;9.38;;;8.48;;
11222;SDS011;5668;52.012;8.724;2023-08-12T04:31:27;10.75;;;8.20;;
11222;SDS011;5668;52.012;8.724;2023-08-12T04:33:54;10.27;;;9.20;;
11222;SDS011;5668;52.012;8.724;2023-08-12T04:36:22;9.57;;;8.68;;
11222;SDS011;5668;52.012;8.724;2023-08-12T04:38:49;10.48;;;8.57;;
11222;SDS011;5668;52.012;8.724;2023-08-12T04:41:16;9.70;;;8.70;;
11222;SDS011;5668;52.012;8.724;2023-08-12T04:43:44;10.38;;;9.25;;
11222;SDS011;5668;52.012;8.724;2023-08-12T04:46:12;12.13;;;8.88;;
11222;SDS011;5668;52.012;8.724;2023-08-12T04:48:40;10.57;;;9.23;;
11222;SDS011;5668;52.012;8.724;2023-08-12T04:51:07;11.40;;;9.57;;
11222;SDS011;5668;52.012;8.724;2023-08-12T04:53:35;11.77;;;10.35;;
11222;SDS011;5668;52.012;8.724;2023-08-12T04:56:02;12.68;;;11.32;;
11222;SDS011;5668;52.012;8.724;2023-08-12T04:58:29;12.25;;;11.02;;
11222;SDS011;5668;52.012;8.724;2023-08-12T05:00:57;12.63;;;11.40;;
11222;SDS011;5668;52.012;8.724;2023-08-12T05:03:25;10.77;;;9.70;;
11222;SDS011;5668;52.012;8.724;2023-08-12T05:05:53;10.52;;;9.40;;
11222;SDS011;5668;52.012;8.724;2023-08-12T05:08:20;9.65;;;8.75;;
11222;SDS011;5668;52.012;8.724;2023-08-12T05:10:47;9.05;;;8.30;;
11222;SDS011;5668;52.012;8.724;2023-08-12T05:13:14;9.55;;;8.65;;
11222;SDS011;5668;52.012;8.724;2023-08-12T05:15:44;10.43;;;9.43;;
11222;SDS011;5668;52.012;8.724;2023-08-12T05:18:12;13.10;;;11.70;;
11222;SDS011;5668;52.012;8.724;2023-08-12T05:20:41;13.38;;;12.07;;
11222;SDS011;5668;52.012;8.724;2023-08-12T05:23:09;13.40;;;12.00;;
11222;SDS011;5668;52.012;8.724;2023-08-12T05:25:36;12.65;;;11.45;;
11222;SDS011;5668;52.012;8.724;2023-08-12T05:28:06;13.07;;;11.77;;
11222;SDS011;5668;52.012;8.724;2023-08-12T05:30:33;13.60;;;11.60;;
11222;SDS011;5668;52.012;8.724;2023-08-12T05:33:01;13.77;;;12.38;;
11222;SDS011;5668;52.012;8.724;2023-08-12T05:35:32;15.20;;;11.82;;
11222;SDS011;5668;52.012;8.724;2023-08-12T05:38:01;13.05;;;11.73;;
11222;SDS011;5668;52.012;8.724;2023-08-12T05:40:29;13.50;;;11.25;;
11222;SDS011;5668;52.012;8.724;2023-08-12T05:42:56;13.90;;;12.50;;
11222;SDS011;5668;52.012;8.724;2023-08-12T05:45:23;15.35;;;13.35;;
11222;SDS011;5668;52.012;8.724;2023-08-12T05:47:50;13.70;;;12.30;;
11222;SDS011;5668;52.012;8.724;2023-08-12T05:50:18;14.65;;;13.15;;
11222;SDS011;5668;52.012;8.724;2023-08-12T05:52:46;14.43;;;12.93;;
11222;SDS011;5668;52.012;8.724;2023-08-12T05:55:15;15.07;;;13.63;;
11222;SDS011;5668;52.012;8.724;2023-08-12T05:57:42;14.05;;;12.73;;
11222;SDS011;5668;52.012;8.724;2023-08-12T06:00:10;13.93;;;12.63;;
11222;SDS011;5668;52.012;8.724;2023-08-12T06:02:37;14.32;;;12.85;;
11222;SDS011;5668;52.012;8.724;2023-08-12T06:05:05;15.57;;;12.95;;
11222;SDS011;5668;52.012;8.724;2023-08-12T06:07:33;13.38;;;12.02;;
11222;SDS011;5668;52.012;8.724;2023-08-12T06:10:01;12.45;;;11.25;;
11222;SDS011;5668;52.012;8.724;2023-08-12T06:12:30;12.40;;;11.05;;
11222;SDS011;5668;52.012;8.724;2023-08-12T06:14:57;12.48;;;11.15;;
11222;SDS011;5668;52.012;8.724;2023-08-12T06:17:26;12.38;;;11.18;;
11222;SDS011;5668;52.012;8.724;2023-08-12T06:19:53;11.73;;;10.60;;
11222;SDS011;5668;52.012;8.724;2023-08-12T06:22:20;11.25;;;10.15;;
11222;SDS011;5668;52.012;8.724;2023-08-12T06:24:48;11.50;;;10.30;;
11222;SDS011;5668;52.012;8.724;2023-08-12T06:27:15;11.32;;;10.32;;
11222;SDS011;5668;52.012;8.724;2023-08-12T06:29:46;11.73;;;9.98;;
11222;SDS011;5668;52.012;8.724;2023-08-12T06:32:13;13.23;;;10.93;;
11222;SDS011;5668;52.012;8.724;2023-08-12T06:34:40;11.18;;;10.13;;
11222;SDS011;5668;52.012;8.724;2023-08-12T06:37:07;12.13;;;10.57;;
11222;SDS011;5668;52.012;8.724;2023-08-12T06:39:35;11.13;;;10.00;;
11222;SDS011;5668;52.012;8.724;2023-08-12T06:42:02;10.48;;;9.57;;
11222;SDS011;5668;52.012;8.724;2023-08-12T06:44:30;11.77;;;10.68;;
11222;SDS011;5668;52.012;8.724;2023-08-12T06:46:58;11.00;;;10.02;;
11222;SDS011;5668;52.012;8.724;2023-08-12T06:49:25;10.90;;;9.90;;
11222;SDS011;5668;52.012;8.724;2023-08-12T06:51:53;10.50;;;9.57;;
11222;SDS011;5668;52.012;8.724;2023-08-12T06:54:20;11.40;;;10.07;;
11222;SDS011;5668;52.012;8.724;2023-08-12T06:56:48;11.48;;;10.38;;
11222;SDS011;5668;52.012;8.724;2023-08-12T06:59:15;11.35;;;10.35;;
11222;SDS011;5668;52.012;8.724;2023-08-12T07:01:43;11.18;;;9.85;;
11222;SDS011;5668;52.012;8.724;2023-08-12T07:04:11;10.98;;;9.98;;
11222;SDS011;5668;52.012;8.724;2023-08-12T07:06:38;11.05;;;10.05;;
11222;SDS011;5668;52.012;8.724;2023-08-12T07:09:06;10.50;;;9.50;;
11222;SDS011;5668;52.012;8.724;2023-08-12T07:11:33;11.27;;;10.27;;
11222;SDS011;5668;52.012;8.724;2023-08-12T07:14:00;9.80;;;8.90;;
11222;SDS011;5668;52.012;8.724;2023-08-12T07:16:28;10.65;;;9.55;;
11222;SDS011;5668;52.012;8.724;2023-08-12T07:18:55;11.40;;;10.20;;
11222;SDS011;5668;52.012;8.724;2023-08-12T07:21:23;10.05;;;9.15;;
11222;SDS011;5668;52.012;8.724;2023-08-12T07:23:51;10.98;;;9.95;;
11222;SDS011;5668;52.012;8.724;2023-08-12T07:26:18;10.18;;;9.23;;
11222;SDS011;5668;52.012;8.724;2023-08-12T07:28:45;10.73;;;9.73;;
11222;SDS011;5668;52.012;8.724;2023-08-12T07:31:13;9.98;;;9.07;;
11222;SDS011;5668;52.012;8.724;2023-08-12T07:33:40;10.38;;;8.98;;
11222;SDS011;5668;52.012;8.724;2023-08-12T07:36:07;10.18;;;9.18;;
11222;SDS011;5668;52.012;8.724;2023-08-12T07:38:36;10.02;;;8.88;;
11222;SDS011;5668;52.012;8.724;2023-08-12T07:41:03;9.18;;;8.35;;
11222;SDS011;5668;52.012;8.724;2023-08-12T07:43:30;9.20;;;8.35;;
11222;SDS011;5668;52.012;8.724;2023-08-12T07:45:58;8.57;;;7.78;;
11222;SDS011;5668;52.012;8.724;2023-08-12T07:48:25;8.50;;;7.70;;
11222;SDS011;5668;52.012;8.724;2023-08-12T07:50:54;8.95;;;7.80;;
11222;SDS011;5668;52.012;8.724;2023-08-12T07:53:22;8.68;;;7.88;;
11222;SDS011;5668;52.012;8.724;2023-08-12T07:55:51;8.40;;;7.35;;
11222;SDS011;5668;52.012;8.724;2023-08-12T07:58:19;8.00;;;7.28;;
11222;SDS011;5668;52.012;8.724;2023-08-12T08:00:46;7.70;;;7.00;;
11222;SDS011;5668;52.012;8.724;2023-08-12T08:03:13;7.97;;;7.25;;
11222;SDS011;5668;52.012;8.724;2023-08-12T08:05:40;7.80;;;7.10;;
11222;SDS011;5668;52.012;8.724;2023-08-12T08:08:10;8.15;;;7.35;;
11222;SDS011;5668;52.012;8.724;2023-08-12T08:10:37;7.43;;;6.82;;
11222;SDS011;5668;52.012;8.724;2023-08-12T08:13:06;8.15;;;7.35;;
11222;SDS011;5668;52.012;8.724;2023-08-12T08:15:33;8.00;;;7.20;;
11222;SDS011;5668;52.012;8.724;2023-08-12T08:18:01;7.80;;;7.10;;
11222;SDS011;5668;52.012;8.724;2023-08-12T08:20:29;7.10;;;6.50;;
11222;SDS011;5668;52.012;8.724;2023-08-12T08:22:56;7.18;;;6.47;;
11222;SDS011;5668;52.012;8.724;2023-08-12T08:25:24;6.57;;;5.97;;
11222;SDS011;5668;52.012;8.724;2023-08-12T08:27:51;6.45;;;5.85;;
11222;SDS011;5668;52.012;8.724;2023-08-12T08:30:20;6.90;;;5.68;;
11222;SDS011;5668;52.012;8.724;2023-08-12T08:32:49;6.50;;;5.70;;
11222;SDS011;5668;52.012;8.724;2023-08-12T08:35:16;6.13;;;5.57;;
11222;SDS011;5668;52.012;8.724;2023-08-12T08:37:44;5.68;;;5.18;;
11222;SDS011;5668;52.012;8.724;2023-08-12T08:40:11;5.43;;;5.03;;
11222;SDS011;5668;52.012;8.724;2023-08-12T08:42:39;5.25;;;4.85;;
11222;SDS011;5668;52.012;8.724;2023-08-12T08:45:11;5.78;;;5.30;;
11222;SDS011;5668;52.012;8.724;2023-08-12T08:47:41;5.95;;;5.45;;
11222;SDS011;5668;52.012;8.724;2023-08-12T08:50:09;5.25;;;4.75;;
11222;SDS011;5668;52.012;8.724;2023-08-12T08:52:38;5.70;;;5.20;;
11222;SDS011;5668;52.012;8.724;2023-08-12T08:55:08;6.70;;;5.25;;
11222;SDS011;5668;52.012;8.724;2023-08-12T08:57:36;5.43;;;4.93;;
11222;SDS011;5668;52.012;8.724;2023-08-12T09:00:04;5.78;;;5.28;;
11222;SDS011;5668;52.012;8.724;2023-08-12T09:02:35;5.68;;;5.18;;
11222;SDS011;5668;52.012;8.724;2023-08-12T09:05:04;5.72;;;4.97;;
11222;SDS011;5668;52.012;8.724;2023-08-12T09:07:33;5.72;;;5.32;;
11222;SDS011;5668;52.012;8.724;2023-08-12T09:10:01;5.70;;;5.20;;
11222;SDS011;5668;52.012;8.724;2023-08-12T09:12:30;6.07;;;5.47;;
11222;SDS011;5668;52.012;8.724;2023-08-12T09:14:58;5.95;;;5.45;;
11222;SDS011;5668;52.012;8.724;2023-08-12T09:17:25;5.53;;;5.00;;
11222;SDS011;5668;52.012;8.724;2023-08-12T09:19:52;5.70;;;5.20;;
11222;SDS011;5668;52.012;8.724;2023-08-12T09:22:22;4.88;;;4.47;;
11222;SDS011;5668;52.012;8.724;2023-08-12T09:24:55;5.43;;;4.93;;
11222;SDS011;5668;52.012;8.724;2023-08-12T09:27:23;5.80;;;5.30;;
11222;SDS011;5668;52.012;8.724;2023-08-12T09:29:55;5.53;;;5.10;;
11222;SDS011;5668;52.012;8.724;2023-08-12T09:32:23;6.07;;;5.57;;
11222;SDS011;5668;52.012;8.724;2023-08-12T09:34:51;6.13;;;5.53;;
11222;SDS011;5668;52.012;8.724;2023-08-12T09:37:19;6.03;;;4.97;;
11222;SDS011;5668;52.012;8.724;2023-08-12T09:39:50;5.90;;;5.40;;
11222;SDS011;5668;52.012;8.724;2023-08-12T09:42:18;6.03;;;5.53;;
11222;SDS011;5668;52.012;8.724;2023-08-12T09:44:45;5.65;;;5.18;;
11222;SDS011;5668;52.012;8.724;2023-08-12T09:47:13;5.78;;;5.28;;
11222;SDS011;5668;52.012;8.724;2023-08-12T09:49:40;5.18;;;4.70;;
11222;SDS011;5668;52.012;8.724;2023-08-12T09:52:08;4.78;;;4.40;;
11222;SDS011;5668;52.012;8.724;2023-08-12T09:54:36;4.90;;;4.50;;
11222;SDS011;5668;52.012;8.724;2023-08-12T09:57:04;5.22;;;4.60;;
11222;SDS011;5668;52.012;8.724;2023-08-12T09:59:34;4.32;;;4.03;;
11222;SDS011;5668;52.012;8.724;2023-08-12T10:02:05;4.03;;;3.72;;
11222;SDS011;5668;52.012;8.724;2023-08-12T10:04:35;3.78;;;3.40;;
11222;SDS011;5668;52.012;8.724;2023-08-12T10:07:07;3.80;;;3.50;;
11222;SDS011;5668;52.012;8.724;2023-08-12T10:09:37;3.35;;;3.05;;
11222;SDS011;5668;52.012;8.724;2023-08-12T10:12:05;3.47;;;3.17;;
11222;SDS011;5668;52.012;8.724;2023-08-12T10:14:34;3.13;;;2.92;;
11222;SDS011;5668;52.012;8.724;2023-08-12T10:17:01;3.40;;;3.10;;
11222;SDS011;5668;52.012;8.724;2023-08-12T10:19:29;3.38;;;3.08;;
11222;SDS011;5668;52.012;8.724;2023-08-12T10:21:57;3.30;;;3.10;;
11222;SDS011;5668;52.012;8.724;2023-08-12T10:24:26;3.35;;;2.80;;
11222;SDS011;5668;52.012;8.724;2023-08-12T10:26:55;3.03;;;2.83;;
11222;SDS011;5668;52.012;8.724;2023-08-12T10:29:22;3.03;;;2.83;;
11222;SDS011;5668;52.012;8.724;2023-08-12T10:31:50;3.42;;;3.20;;
11222;SDS011;5668;52.012;8.724;2023-08-12T10:34:18;3.38;;;3.08;;
11222;SDS011;5668;52.012;8.724;2023-08-12T10:36:46;3.15;;;2.70;;
11222;SDS011;5668;52.012;8.724;2023-08-12T10:39:14;3.25;;;2.63;;
11222;SDS011;5668;52.012;8.724;2023-08-12T10:41:49;2.63;;;2.42;;
11222;SDS011;5668;52.012;8.724;2023-08-12T10:44:20;2.53;;;2.33;;
11222;SDS011;5668;52.012;8.724;2023-08-12T10:46:52;2.50;;;2.30;;
11222;SDS011;5668;52.012;8.724;2023-08-12T10:49:20;2.25;;;1.88;;
11222;SDS011;5668;52.012;8.724;2023-08-12T10:51:49;2.35;;;1.88;;
11222;SDS011;5668;52.012;8.724;2023-08-12T10:54:22;1.63;;;1.52;;
11222;SDS011;5668;52.012;8.724;2023-08-12T10:57:07;3.28;;;1.90;;
11222;SDS011;5668;52.012;8.724;2023-08-12T10:59:50;2.08;;;1.88;;
11222;SDS011;5668;52.012;8.724;2023-08-12T11:02:20;2.08;;;1.80;;
11222;SDS011;5668;52.012;8.724;2023-08-12T11:04:52;1.80;;;1.70;;
11222;SDS011;5668;52.012;8.724;2023-08-12T11:07:21;1.70;;;1.60;;
11222;SDS011;5668;52.012;8.724;2023-08-12T11:09:56;1.88;;;1.50;;
11222;SDS011;5668;52.012;8.724;2023-08-12T11:12:30;1.73;;;1.55;;
11222;SDS011;5668;52.012;8.724;2023-08-12T11:15:00;1.70;;;1.60;;
11222;SDS011;5668;52.012;8.724;2023-08-12T11:17:31;1.70;;;1.35;;
11222;SDS011;5668;52.012;8.724;2023-08-12T11:20:00;2.33;;;1.70;;
11222;SDS011;5668;52.012;8.724;2023-08-12T11:22:30;1.98;;;1.30;;
11222;SDS011;5668;52.012;8.724;2023-08-12T11:24:59;1.70;;;1.60;;
11222;SDS011;5668;52.012;8.724;2023-08-12T11:27:27;2.05;;;1.50;;
11222;SDS011;5668;52.012;8.724;2023-08-12T11:30:03;1.70;;;1.60;;
11222;SDS011;5668;52.012;8.724;2023-08-12T11:32:32;1.70;;;1.60;;
11222;SDS011;5668;52.012;8.724;2023-08-12T11:35:00;1.30;;;1.20;;
11222;SDS011;5668;52.012;8.724;2023-08-12T11:37:29;1.70;;;1.27;;
11222;SDS011;5668;52.012;8.724;2023-08-12T11:39:56;1.40;;;1.30;;
11222;SDS011;5668;52.012;8.724;2023-08-12T11:42:23;1.30;;;1.20;;
11222;SDS011;5668;52.012;8.724;2023-08-12T11:44:51;1.27;;;1.13;;
11222;SDS011;5668;52.012;8.724;2023-08-12T11:47:19;2.45;;;1.10;;
11222;SDS011;5668;52.012;8.724;2023-08-12T11:49:47;1.20;;;1.10;;
11222;SDS011;5668;52.012;8.724;2023-08-12T11:52:14;0.95;;;0.90;;
11222;SDS011;5668;52.012;8.724;2023-08-12T11:54:41;0.85;;;0.80;;
11222;SDS011;5668;52.012;8.724;2023-08-12T11:57:09;1.30;;;1.20;;
11222;SDS011;5668;52.012;8.724;2023-08-12T11:59:36;2.05;;;1.10;;
11222;SDS011;5668;52.012;8.724;2023-08-12T12:02:04;1.20;;;0.90;;
11222;SDS011;5668;52.012;8.724;2023-08-12T12:04:32;1.40;;;1.05;;
11222;SDS011;5668;52.012;8.724;2023-08-12T12:07:00;1.00;;;0.90;;
11222;SDS011;5668;52.012;8.724;2023-08-12T12:09:31;1.02;;;1.00;;
11222;SDS011;5668;52.012;8.724;2023-08-12T12:11:59;1.20;;;1.10;;
11222;SDS011;5668;52.012;8.724;2023-08-12T12:14:26;1.05;;;0.95;;
11222;SDS011;5668;52.012;8.724;2023-08-12T12:16:54;1.23;;;1.00;;
11222;SDS011;5668;52.012;8.724;2023-08-12T12:19:22;1.10;;;0.90;;
11222;SDS011;5668;52.012;8.724;2023-08-12T12:21:51;0.77;;;0.77;;
11222;SDS011;5668;52.012;8.724;2023-08-12T12:24:19;0.90;;;0.80;;
11222;SDS011;5668;52.012;8.724;2023-08-12T12:26:47;1.33;;;1.02;;
11222;SDS011;5668;52.012;8.724;2023-08-12T12:29:15;1.13;;;0.75;;
11222;SDS011;5668;52.012;8.724;2023-08-12T12:31:42;0.80;;;0.80;;
11222;SDS011;5668;52.012;8.724;2023-08-12T12:34:09;1.88;;;1.00;;
11222;SDS011;5668;52.012;8.724;2023-08-12T12:36:39;2.55;;;0.85;;
11222;SDS011;5668;52.012;8.724;2023-08-12T12:39:08;1.15;;;0.90;;
11222;SDS011;5668;52.012;8.724;2023-08-12T12:41:35;0.80;;;0.80;;
11222;SDS011;5668;52.012;8.724;2023-08-12T12:44:03;1.00;;;0.90;;
11222;SDS011;5668;52.012;8.724;2023-08-12T12:46:31;1.30;;;0.73;;
11222;SDS011;5668;52.012;8.724;2023-08-12T12:48:58;1.15;;;0.70;;
11222;SDS011;5668;52.012;8.724;2023-08-12T12:51:25;1.38;;;0.90;;
11222;SDS011;5668;52.012;8.724;2023-08-12T12:53:53;1.00;;;0.90;;
11222;SDS011;5668;52.012;8.724;2023-08-12T12:56:21;2.85;;;0.90;;
11222;SDS011;5668;52.012;8.724;2023-08-12T12:58:49;0.98;;;0.88;;
11222;SDS011;5668;52.012;8.724;2023-08-12T13:01:16;1.95;;;1.05;;
11222;SDS011;5668;52.012;8.724;2023-08-12T13:03:43;1.02;;;0.90;;
11222;SDS011;5668;52.012;8.724;2023-08-12T13:06:11;1.20;;;0.80;;
11222;SDS011;5668;52.012;8.724;2023-08-12T13:08:38;0.98;;;0.82;;
11222;SDS011;5668;52.012;8.724;2023-08-12T13:11:05;1.10;;;0.82;;
11222;SDS011;5668;52.012;8.724;2023-08-12T13:13:34;1.15;;;0.80;;
11222;SDS011;5668;52.012;8.724;2023-08-12T13:16:01;0.77;;;0.77;;
11222;SDS011;5668;52.012;8.724;2023-08-12T13:18:28;1.42;;;0.80;;
11222;SDS011;5668;52.012;8.724;2023-08-12T13:20:56;1.83;;;0.80;;
11222;SDS011;5668;52.012;8.724;2023-08-12T13:23:23;1.10;;;1.00;;
11222;SDS011;5668;52.012;8.724;2023-08-12T13:25:50;1.27;;;0.80;;
11222;SDS011;5668;52.012;8.724;2023-08-12T13:28:19;1.00;;;0.90;;
11222;SDS011;5668;52.012;8.724;2023-08-12T13:30:47;1.23;;;1.10;;
11222;SDS011;5668;52.012;8.724;2023-08-12T13:33:15;1.00;;;0.82;;
11222;SDS011;5668;52.012;8.724;2023-08-12T13:35:42;0.88;;;0.80;;
11222;SDS011;5668;52.012;8.724;2023-08-12T13:38:10;0.90;;;0.73;;
11222;SDS011;5668;52.012;8.724;2023-08-12T13:40:37;1.60;;;0.80;;
11222;SDS011;5668;52.012;8.724;2023-08-12T13:43:04;1.27;;;0.80;;
11222;SDS011;5668;52.012;8.724;2023-08-12T13:45:31;1.10;;;1.00;;
11222;SDS011;5668;52.012;8.724;2023-08-12T13:48:00;1.45;;;1.05;;
11222;SDS011;5668;52.012;8.724;2023-08-12T13:50:28;2.30;;;1.17;;
11222;SDS011;5668;52.012;8.724;2023-08-12T13:52:57;1.33;;;1.10;;
11222;SDS011;5668;52.012;8.724;2023-08-12T13:55:25;2.20;;;1.30;;
11222;SDS011;5668;52.012;8.724;2023-08-12T13:57:52;2.63;;;1.27;;
11222;SDS011;5668;52.012;8.724;2023-08-12T14:00:19;1.67;;;1.05;;
11222;SDS011;5668;52.012;8.724;2023-08-12T14:02:49;3.03;;;1.30;;
11222;SDS011;5668;52.012;8.724;2023-08-12T14:05:17;1.75;;;1.10;;
11222;SDS011;5668;52.012;8.724;2023-08-12T14:07:45;1.05;;;0.95;;
11222;SDS011;5668;52.012;8.724;2023-08-12T14:10:13;1.23;;;1.00;;
11222;SDS011;5668;52.012;8.724;2023-08-12T14:12:41;1.13;;;1.02;;
11222;SDS011;5668;52.012;8.724;2023-08-12T14:15:08;1.15;;;1.05;;
11222;SDS011;5668;52.012;8.724;2023-08-12T14:17:36;1.20;;;1.13;;
11222;SDS011;5668;52.012;8.724;2023-08-12T14:20:05;1.40;;;1.30;;
11222;SDS011;5668;52.012;8.724;2023-08-12T14:22:36;1.70;;;1.60;;
11222;SDS011;5668;52.012;8.724;2023-08-12T14:25:04;1.92;;;1.83;;
11222;SDS011;5668;52.012;8.724;2023-08-12T14:27:33;2.20;;;2.00;;
11222;SDS011;5668;52.012;8.724;2023-08-12T14:30:00;1.95;;;1.85;;
11222;SDS011;5668;52.012;8.724;2023-08-12T14:32:28;2.03;;;1.92;;
11222;SDS011;5668;52.012;8.724;2023-08-12T14:34:55;2.40;;;2.20;;
11222;SDS011;5668;52.012;8.724;2023-08-12T14:37:22;2.42;;;2.22;;
11222;SDS011;5668;52.012;8.724;2023-08-12T14:39:51;2.58;;;2.38;;
11222;SDS011;5668;52.012;8.724;2023-08-12T14:42:18;2.80;;;2.60;;
11222;SDS011;5668;52.012;8.724;2023-08-12T14:44:45;4.80;;;2.50;;
11222;SDS011;5668;52.012;8.724;2023-08-12T14:47:13;2.60;;;2.40;;
11222;SDS011;5668;52.012;8.724;2023-08-12T14:49:40;2.60;;;2.40;;
11222;SDS011;5668;52.012;8.724;2023-08-12T14:52:14;2.50;;;2.30;;
11222;SDS011;5668;52.012;8.724;2023-08-12T14:54:42;2.40;;;2.20;;
11222;SDS011;5668;52.012;8.724;2023-08-12T14:57:10;2.50;;;2.30;;
11222;SDS011;5668;52.012;8.724;2023-08-12T14:59:38;3.03;;;2.60;;
11222;SDS011;5668;52.012;8.724;2023-08-12T15:02:05;2.40;;;2.20;;
11222;SDS011;5668;52.012;8.724;2023-08-12T15:04:33;2.30;;;2.10;;